Terminal Aerodrome Forecast
Issued by NWS Wilmington, OH

Current Version | Previous Version | Graphics & Text | Print | Product List | Glossary On
Versions: 1 2 3 4 5 6 7 8 9 10 11 12 13 14 15 16 17 18
000
FTUS41 KILN 200800 AAB
TAFDAY
TAF AMD
KDAY 200801Z 2008/2106 35009KT P6SM BKN029
     FM201000 01006KT P6SM SCT100 BKN250
     FM210000 04008KT P6SM VCSH BKN050
     FM210300 04006KT P6SM VCSH BKN025=

USA.gov is the U.S. government's official web portal to all federal, state and local government web resources and services.